Time;durP1;ratioP1;P1;durP2;ratioP2;P2;SDS_P1;SDS_P2;PMS_P1;PMS_P2;Temp;Humidity;BMP_temperature;BMP_pressure;BME280_temperature;BME280_humidity;BME280_pressure;Samples;Min_cycle;Max_cycle;Signal;HPM_P1;HPM_P2
2022/07/06 00:01:36;;;;;;;3.58;3.03;;;;;;;;;;5114348;28;20027;-62
2022/07/06 00:04:03;;;;;;;3.30;3.10;;;;;;;;;;5114381;28;20102;-62
2022/07/06 00:06:28;;;;;;;4.15;2.92;;;;;;;;;;5114354;28;20028;-61
2022/07/06 00:08:53;;;;;;;3.13;2.92;;;;;;;;;;5112815;28;20342;-63
2022/07/06 00:11:19;;;;;;;3.75;3.28;;;;;;;;;;5114243;28;20062;-62
2022/07/06 00:13:45;;;;;;;3.40;3.10;;;;;;;;;;5114359;28;20031;-62
2022/07/06 00:16:11;;;;;;;4.80;2.97;;;;;;;;;;5114039;28;20497;-63
2022/07/06 00:18:36;;;;;;;3.55;2.90;;;;;;;;;;5113372;28;20027;-62
2022/07/06 00:21:02;;;;;;;4.60;3.30;;;;;;;;;;5112791;28;20131;-62
2022/07/06 00:23:27;;;;;;;4.85;3.40;;;;;;;;;;5113874;28;20050;-62
2022/07/06 00:25:52;;;;;;;4.13;3.28;;;;;;;;;;5114121;28;20463;-62
2022/07/06 00:28:18;;;;;;;3.20;3.00;;;;;;;;;;5113818;28;20096;-62
2022/07/06 00:30:43;;;;;;;3.40;3.10;;;;;;;;;;5113969;28;20034;-62
2022/07/06 00:33:09;;;;;;;3.30;3.05;;;;;;;;;;5113746;28;20444;-62
2022/07/06 00:35:34;;;;;;;3.70;3.40;;;;;;;;;;5113918;28;20031;-62
2022/07/06 00:37:59;;;;;;;3.75;3.30;;;;;;;;;;5112329;28;20179;-62
2022/07/06 00:40:25;;;;;;;5.40;3.28;;;;;;;;;;5113733;28;20114;-61
2022/07/06 00:42:51;;;;;;;3.97;3.65;;;;;;;;;;5113558;28;20037;-63
2022/07/06 00:45:17;;;;;;;4.20;3.80;;;;;;;;;;5113496;28;20058;-62
2022/07/06 00:47:43;;;;;;;3.83;3.53;;;;;;;;;;5113727;28;20030;-62
2022/07/06 00:50:13;;;;;;;3.47;3.17;;;;;;;;;;5113170;28;20024;-62
2022/07/06 00:52:43;;;;;;;4.25;3.72;;;;;;;;;;5113403;28;20118;-62
2022/07/06 00:55:10;;;;;;;3.63;3.33;;;;;;;;;;5113358;28;20032;-62
2022/07/06 00:57:36;;;;;;;4.63;3.25;;;;;;;;;;5113283;28;20530;-62
2022/07/06 01:00:04;;;;;;;4.57;3.60;;;;;;;;;;5113173;28;20470;-60
2022/07/06 01:02:33;;;;;;;4.13;3.15;;;;;;;;;;5113138;28;20030;-62
2022/07/06 01:04:59;;;;;;;4.40;3.80;;;;;;;;;;5113247;28;20020;-62
2022/07/06 01:07:25;;;;;;;5.60;4.25;;;;;;;;;;5113134;28;20026;-61
2022/07/06 01:09:50;;;;;;;4.30;3.90;;;;;;;;;;5113430;28;20028;-61
2022/07/06 01:12:16;;;;;;;4.00;3.60;;;;;;;;;;5113352;28;20027;-60
2022/07/06 01:14:42;;;;;;;4.70;3.78;;;;;;;;;;5113434;28;20055;-62
2022/07/06 01:17:08;;;;;;;4.22;3.58;;;;;;;;;;5113095;28;20490;-62
2022/07/06 01:19:33;;;;;;;3.88;3.58;;;;;;;;;;5111849;28;20463;-62
2022/07/06 01:21:59;;;;;;;6.95;3.95;;;;;;;;;;5112719;28;20051;-61
2022/07/06 01:24:25;;;;;;;4.13;3.72;;;;;;;;;;5112918;28;20024;-61
2022/07/06 01:26:50;;;;;;;4.32;3.92;;;;;;;;;;5112940;28;20099;-62
2022/07/06 01:29:16;;;;;;;4.65;4.25;;;;;;;;;;5112945;28;20031;-62
2022/07/06 01:31:50;;;;;;;5.90;3.70;;;;;;;;;;5113188;28;20035;-61
2022/07/06 01:34:17;;;;;;;4.60;4.18;;;;;;;;;;5113186;28;20052;-62
2022/07/06 01:36:42;;;;;;;4.38;3.97;;;;;;;;;;5113115;28;20024;-62
2022/07/06 01:39:08;;;;;;;4.75;4.28;;;;;;;;;;5113072;28;20451;-63
2022/07/06 01:41:34;;;;;;;4.57;3.70;;;;;;;;;;5112626;28;20382;-61
2022/07/06 01:43:59;;;;;;;6.25;4.45;;;;;;;;;;5113020;28;20024;-61
2022/07/06 01:46:25;;;;;;;4.28;3.88;;;;;;;;;;5112668;28;20485;-61
2022/07/06 01:48:51;;;;;;;5.47;4.00;;;;;;;;;;5112660;28;20028;-60
2022/07/06 01:51:16;;;;;;;4.30;3.90;;;;;;;;;;5112691;28;20073;-61
2022/07/06 01:53:42;;;;;;;6.50;4.28;;;;;;;;;;5112676;28;20027;-54
2022/07/06 01:56:07;;;;;;;4.57;3.78;;;;;;;;;;5112696;28;20088;-60
2022/07/06 01:58:33;;;;;;;4.85;4.35;;;;;;;;;;5112899;28;20032;-61
2022/07/06 02:00:59;;;;;;;4.82;4.20;;;;;;;;;;5112770;28;20031;-60
2022/07/06 02:03:24;;;;;;;5.70;4.32;;;;;;;;;;5114643;28;20352;-61
2022/07/06 02:05:50;;;;;;;5.10;4.60;;;;;;;;;;5116461;28;20137;-59
2022/07/06 02:08:15;;;;;;;5.07;4.32;;;;;;;;;;5116453;28;20033;-56
2022/07/06 02:10:40;;;;;;;4.70;4.30;;;;;;;;;;5116789;28;20027;-61
2022/07/06 02:13:06;;;;;;;5.07;4.57;;;;;;;;;;5116452;28;20098;-61
2022/07/06 02:15:31;;;;;;;4.80;4.40;;;;;;;;;;5115206;28;20027;-60
2022/07/06 02:17:57;;;;;;;5.60;4.88;;;;;;;;;;5116352;28;20073;-61
2022/07/06 02:20:22;;;;;;;5.07;4.57;;;;;;;;;;5115003;28;20055;-61
2022/07/06 02:22:47;;;;;;;4.95;4.55;;;;;;;;;;5116303;28;20055;-60
2022/07/06 02:25:13;;;;;;;6.95;5.07;;;;;;;;;;5116198;28;20063;-62
2022/07/06 02:27:38;;;;;;;5.82;4.30;;;;;;;;;;5116164;28;20019;-61
2022/07/06 02:30:05;;;;;;;5.03;4.53;;;;;;;;;;5116136;28;20026;-61
2022/07/06 02:32:30;;;;;;;5.00;4.50;;;;;;;;;;5116074;28;20032;-61
2022/07/06 02:34:56;;;;;;;4.72;4.32;;;;;;;;;;5116038;28;20072;-61
2022/07/06 02:37:21;;;;;;;5.50;5.00;;;;;;;;;;5116004;28;20027;-61
2022/07/06 02:39:47;;;;;;;5.28;4.78;;;;;;;;;;5115891;28;20027;-62
2022/07/06 02:42:14;;;;;;;10.65;4.90;;;;;;;;;;5116112;28;20042;-60
2022/07/06 02:44:39;;;;;;;5.57;4.97;;;;;;;;;;5116142;27;20027;-61
2022/07/06 02:47:04;;;;;;;5.60;4.75;;;;;;;;;;5116076;28;20026;-39
2022/07/06 02:49:30;;;;;;;5.30;4.80;;;;;;;;;;5115694;28;20032;-60
2022/07/06 02:51:55;;;;;;;5.30;4.80;;;;;;;;;;5115621;28;20084;-62
2022/07/06 02:54:21;;;;;;;5.75;4.80;;;;;;;;;;5115661;28;20024;-62
2022/07/06 02:56:50;;;;;;;5.63;5.10;;;;;;;;;;5115898;28;20419;-39
2022/07/06 02:59:16;;;;;;;7.80;5.10;;;;;;;;;;5116150;28;20366;-39
2022/07/06 03:01:42;;;;;;;4.93;4.47;;;;;;;;;;5115723;28;20038;-62
2022/07/06 03:04:07;;;;;;;4.85;4.43;;;;;;;;;;5115684;28;20031;-57
2022/07/06 03:06:32;;;;;;;5.60;4.72;;;;;;;;;;5115426;28;20174;-53
2022/07/06 03:08:58;;;;;;;5.03;4.63;;;;;;;;;;5115663;27;20081;-39
2022/07/06 03:11:23;;;;;;;5.55;5.00;;;;;;;;;;5115217;28;20024;-39
2022/07/06 03:13:48;;;;;;;5.13;4.72;;;;;;;;;;5115191;28;20027;-39
2022/07/06 03:16:14;;;;;;;5.07;4.57;;;;;;;;;;5115444;28;20019;-39
2022/07/06 03:18:39;;;;;;;5.03;4.50;;;;;;;;;;5115336;28;20111;-39
2022/07/06 03:21:05;;;;;;;5.00;4.50;;;;;;;;;;5114792;28;20044;-39
2022/07/06 03:23:31;;;;;;;4.95;4.43;;;;;;;;;;5115352;28;20033;-39
2022/07/06 03:25:56;;;;;;;4.82;4.43;;;;;;;;;;5115271;28;20085;-39
2022/07/06 03:28:21;;;;;;;4.93;4.47;;;;;;;;;;5115188;28;20467;-39
2022/07/06 03:30:47;;;;;;;5.13;4.50;;;;;;;;;;5114971;28;20034;-39
2022/07/06 03:33:12;;;;;;;5.25;4.13;;;;;;;;;;5115108;28;20027;-39
2022/07/06 03:35:38;;;;;;;4.45;4.05;;;;;;;;;;5115099;28;20055;-39
2022/07/06 03:38:03;;;;;;;3.95;3.63;;;;;;;;;;5115084;28;20437;-39
2022/07/06 03:40:29;;;;;;;4.25;3.85;;;;;;;;;;5113376;28;20428;-39
2022/07/06 03:42:54;;;;;;;4.93;3.60;;;;;;;;;;5114957;28;20076;-39
2022/07/06 03:45:19;;;;;;;4.25;3.63;;;;;;;;;;5113520;28;20378;-39
2022/07/06 03:47:45;;;;;;;3.90;3.50;;;;;;;;;;5114914;28;20482;-39
2022/07/06 03:50:10;;;;;;;3.78;3.47;;;;;;;;;;5114936;28;20118;-39
2022/07/06 03:52:39;;;;;;;3.42;3.22;;;;;;;;;;5114518;28;20425;-39
2022/07/06 03:55:07;;;;;;;7.43;3.15;;;;;;;;;;5114777;28;20137;-39
2022/07/06 03:57:33;;;;;;;3.38;3.17;;;;;;;;;;5114490;28;20039;-39
2022/07/06 03:59:58;;;;;;;2.90;2.70;;;;;;;;;;5114308;28;20039;-39
2022/07/06 04:02:24;;;;;;;4.68;2.78;;;;;;;;;;5114548;28;20027;-39
2022/07/06 04:04:49;;;;;;;3.67;2.30;;;;;;;;;;5114254;28;20475;-40
2022/07/06 04:07:14;;;;;;;3.83;2.83;;;;;;;;;;5114554;28;20019;-39
2022/07/06 04:09:40;;;;;;;3.33;2.40;;;;;;;;;;5114180;28;20028;-40
2022/07/06 04:12:06;;;;;;;3.80;2.58;;;;;;;;;;5114370;28;20024;-40
2022/07/06 04:14:31;;;;;;;5.95;2.65;;;;;;;;;;5114147;28;20026;-40
2022/07/06 04:16:57;;;;;;;2.50;2.30;;;;;;;;;;5114306;28;20032;-40
2022/07/06 04:19:22;;;;;;;2.75;2.50;;;;;;;;;;5113996;28;20016;-42
2022/07/06 04:21:47;;;;;;;3.08;2.60;;;;;;;;;;5113696;28;20048;-39
2022/07/06 04:24:13;;;;;;;3.88;2.95;;;;;;;;;;5114189;28;20382;-40
2022/07/06 04:26:38;;;;;;;7.18;2.88;;;;;;;;;;5113124;28;20035;-40
2022/07/06 04:29:03;;;;;;;2.50;2.30;;;;;;;;;;5113753;28;20028;-40
2022/07/06 04:31:29;;;;;;;4.88;2.88;;;;;;;;;;5113992;28;20031;-40
2022/07/06 04:33:54;;;;;;;3.50;3.20;;;;;;;;;;5113691;28;20474;-39
2022/07/06 04:36:20;;;;;;;6.05;2.92;;;;;;;;;;5113945;28;20383;-40
2022/07/06 04:38:47;;;;;;;9.43;5.10;;;;;;;;;;5113533;28;20030;-40
2022/07/06 04:41:12;;;;;;;6.80;4.03;;;;;;;;;;5112243;28;20034;-40
2022/07/06 04:43:38;;;;;;;9.38;4.20;;;;;;;;;;5113770;28;20019;-45
2022/07/06 04:46:05;;;;;;;6.05;3.97;;;;;;;;;;5113728;28;20023;-40
2022/07/06 04:48:32;;;;;;;3.33;2.67;;;;;;;;;;5113350;28;20474;-40
2022/07/06 04:50:58;;;;;;;5.45;3.72;;;;;;;;;;5113614;28;20453;-40
2022/07/06 04:53:23;;;;;;;3.53;2.92;;;;;;;;;;5113857;28;20363;-40
2022/07/06 04:55:49;;;;;;;4.88;2.90;;;;;;;;;;5113284;28;20016;-42
2022/07/06 04:58:14;;;;;;;10.68;4.60;;;;;;;;;;5113287;28;20066;-41
2022/07/06 05:00:39;;;;;;;4.10;3.05;;;;;;;;;;5113496;28;20039;-40
2022/07/06 05:03:05;;;;;;;6.32;4.07;;;;;;;;;;5113230;28;20024;-41
2022/07/06 05:05:30;;;;;;;7.30;4.88;;;;;;;;;;5113560;28;20027;-44
2022/07/06 05:07:56;;;;;;;13.10;6.15;;;;;;;;;;5113283;28;20498;-57
2022/07/06 05:10:21;;;;;;;10.45;5.68;;;;;;;;;;5113417;28;20035;-56
2022/07/06 05:12:46;;;;;;;6.25;3.95;;;;;;;;;;5113412;28;20421;-60
2022/07/06 05:15:12;;;;;;;8.82;4.90;;;;;;;;;;5113391;28;20462;-48
2022/07/06 05:17:37;;;;;;;4.90;3.90;;;;;;;;;;5113285;28;20024;-55
2022/07/06 05:20:04;;;;;;;4.25;2.90;;;;;;;;;;5112673;28;20043;-58
2022/07/06 05:22:29;;;;;;;7.72;3.65;;;;;;;;;;5113137;28;20031;-41
2022/07/06 05:24:55;;;;;;;13.63;4.10;;;;;;;;;;5113009;28;20367;-44
2022/07/06 05:27:20;;;;;;;4.10;2.97;;;;;;;;;;5113294;28;20491;-41
2022/07/06 05:29:45;;;;;;;3.30;3.00;;;;;;;;;;5113024;28;20024;-43
2022/07/06 05:32:11;;;;;;;9.02;3.38;;;;;;;;;;5113187;28;20030;-45
2022/07/06 05:34:37;;;;;;;3.95;2.50;;;;;;;;;;5113190;28;20041;-46
2022/07/06 05:37:03;;;;;;;3.72;2.50;;;;;;;;;;5114235;28;20036;-43
2022/07/06 05:39:28;;;;;;;5.65;2.22;;;;;;;;;;5117166;28;20080;-51
2022/07/06 05:41:54;;;;;;;5.50;3.80;;;;;;;;;;5116916;28;20072;-51
2022/07/06 05:44:19;;;;;;;5.57;3.33;;;;;;;;;;5117257;28;20090;-48
2022/07/06 05:46:45;;;;;;;6.75;3.92;;;;;;;;;;5116834;28;20495;-46
2022/07/06 05:51:54;;;;;;;4.85;3.38;;;;;;;;;;5116171;28;20077;-51
2022/07/06 05:54:19;;;;;;;4.78;3.47;;;;;;;;;;5116774;28;20028;-48
2022/07/06 05:56:44;;;;;;;6.68;3.42;;;;;;;;;;5117085;28;20023;-54
2022/07/06 05:59:10;;;;;;;10.77;4.55;;;;;;;;;;5116973;28;20028;-47
2022/07/06 06:01:36;;;;;;;4.47;2.80;;;;;;;;;;5115267;28;20042;-45
2022/07/06 06:04:01;;;;;;;5.55;3.63;;;;;;;;;;5116946;28;20024;-51
2022/07/06 06:06:27;;;;;;;7.60;3.88;;;;;;;;;;5116656;28;20584;-56
2022/07/06 06:08:52;;;;;;;5.05;2.70;;;;;;;;;;5116800;28;20111;-41
2022/07/06 06:11:18;;;;;;;11.05;5.57;;;;;;;;;;5116709;28;20459;-49
2022/07/06 06:13:43;;;;;;;5.30;3.75;;;;;;;;;;5116636;28;20467;-45
2022/07/06 06:16:09;;;;;;;2.90;2.45;;;;;;;;;;5116256;28;20418;-47
2022/07/06 06:18:35;;;;;;;3.55;2.95;;;;;;;;;;5116041;28;20035;-57
2022/07/06 06:21:00;;;;;;;2.83;2.58;;;;;;;;;;5116134;27;20048;-43
2022/07/06 06:23:26;;;;;;;9.77;5.22;;;;;;;;;;5116321;28;20356;-43
2022/07/06 06:25:51;;;;;;;7.20;3.95;;;;;;;;;;5116266;28;20028;-42
2022/07/06 06:28:17;;;;;;;4.75;3.17;;;;;;;;;;5116424;28;20015;-42
2022/07/06 06:30:42;;;;;;;4.93;2.95;;;;;;;;;;5116266;28;20042;-49
2022/07/06 06:33:13;;;;;;;4.53;3.00;;;;;;;;;;5115921;28;20383;-48
2022/07/06 06:35:47;;;;;;;5.78;3.63;;;;;;;;;;5116309;28;20081;-41
2022/07/06 06:38:13;;;;;;;13.68;3.83;;;;;;;;;;5114587;28;20367;-48
2022/07/06 06:40:39;;;;;;;3.67;2.28;;;;;;;;;;5114226;28;20063;-50
2022/07/06 06:43:05;;;;;;;13.48;5.57;;;;;;;;;;5113859;28;20375;-62
2022/07/06 06:45:30;;;;;;;4.50;3.00;;;;;;;;;;5116058;28;20059;-47
2022/07/06 06:47:56;;;;;;;4.50;2.50;;;;;;;;;;5115777;28;20114;-53
2022/07/06 06:50:23;;;;;;;8.23;4.95;;;;;;;;;;5115068;28;20016;-60
2022/07/06 06:52:49;;;;;;;13.60;4.35;;;;;;;;;;5115646;28;20059;-53
2022/07/06 06:55:15;;;;;;;10.30;4.53;;;;;;;;;;5115960;28;20024;-50
2022/07/06 06:57:40;;;;;;;11.57;5.00;;;;;;;;;;5115906;28;20107;-52
2022/07/06 07:00:07;;;;;;;6.88;3.60;;;;;;;;;;5115497;28;20023;-55
2022/07/06 07:02:32;;;;;;;9.05;5.07;;;;;;;;;;5115432;28;20035;-49
2022/07/06 07:04:58;;;;;;;12.05;7.50;;;;;;;;;;5115441;28;20024;-53
2022/07/06 07:07:23;;;;;;;10.43;5.65;;;;;;;;;;5114092;28;20023;-51
2022/07/06 07:09:49;;;;;;;7.25;3.80;;;;;;;;;;5115426;28;20050;-59
2022/07/06 07:12:16;;;;;;;9.07;6.30;;;;;;;;;;5115518;28;20407;-52
2022/07/06 07:14:42;;;;;;;13.73;7.60;;;;;;;;;;5115470;28;20279;-53
2022/07/06 07:17:08;;;;;;;11.15;6.82;;;;;;;;;;5115351;28;20066;-50
2022/07/06 07:19:33;;;;;;;6.57;3.85;;;;;;;;;;5115048;28;20502;-55
2022/07/06 07:21:59;;;;;;;8.57;4.00;;;;;;;;;;5114724;28;20051;-50
2022/07/06 07:24:24;;;;;;;9.95;4.78;;;;;;;;;;5115369;27;20028;-55
2022/07/06 07:26:50;;;;;;;6.78;3.92;;;;;;;;;;5115041;28;20474;-55
2022/07/06 07:29:15;;;;;;;15.65;8.63;;;;;;;;;;5114993;28;20382;-50
2022/07/06 07:31:41;;;;;;;12.90;5.93;;;;;;;;;;5115245;28;20106;-50
2022/07/06 07:34:06;;;;;;;9.50;5.95;;;;;;;;;;5115154;28;20034;-59
2022/07/06 07:36:31;;;;;;;13.48;5.10;;;;;;;;;;5115142;28;20019;-61
2022/07/06 07:38:57;;;;;;;18.90;11.32;;;;;;;;;;5113825;28;20019;-57
2022/07/06 07:41:22;;;;;;;5.50;4.18;;;;;;;;;;5114883;28;20053;-57
2022/07/06 07:43:48;;;;;;;5.18;2.88;;;;;;;;;;5114669;28;20023;-56
2022/07/06 07:46:14;;;;;;;3.38;2.40;;;;;;;;;;5114525;28;20028;-54
2022/07/06 07:48:40;;;;;;;3.38;2.80;;;;;;;;;;5114541;28;20035;-48
2022/07/06 07:51:06;;;;;;;6.75;4.10;;;;;;;;;;5114404;28;20027;-58
2022/07/06 07:53:31;;;;;;;3.65;2.88;;;;;;;;;;5114419;28;20023;-55
2022/07/06 07:55:57;;;;;;;15.20;5.65;;;;;;;;;;5114245;28;20035;-61
2022/07/06 07:58:22;;;;;;;7.43;3.90;;;;;;;;;;5114523;28;20096;-57
2022/07/06 08:00:48;;;;;;;16.40;7.82;;;;;;;;;;5113212;28;20023;-44
2022/07/06 08:03:13;;;;;;;6.43;2.53;;;;;;;;;;5114080;28;20043;-60
2022/07/06 08:05:38;;;;;;;5.75;3.00;;;;;;;;;;5114073;28;20035;-40
2022/07/06 08:08:05;;;;;;;2.95;2.38;;;;;;;;;;5114320;28;20023;-55
2022/07/06 08:10:30;;;;;;;5.68;2.83;;;;;;;;;;5114335;28;20033;-54
2022/07/06 08:12:56;;;;;;;7.38;3.45;;;;;;;;;;5114219;28;20020;-44
2022/07/06 08:15:21;;;;;;;4.75;3.47;;;;;;;;;;5114219;28;20028;-61
2022/07/06 08:17:46;;;;;;;8.68;3.15;;;;;;;;;;5114219;28;20035;-58
2022/07/06 08:20:12;;;;;;;5.28;3.53;;;;;;;;;;5113950;28;20071;-52
2022/07/06 08:22:38;;;;;;;1.90;1.70;;;;;;;;;;5112539;28;20024;-52
2022/07/06 08:25:04;;;;;;;2.28;2.10;;;;;;;;;;5114154;28;20070;-53
2022/07/06 08:27:30;;;;;;;3.83;2.90;;;;;;;;;;5114031;28;20042;-49
2022/07/06 08:29:55;;;;;;;8.60;4.20;;;;;;;;;;5113672;28;20467;-59
2022/07/06 08:32:20;;;;;;;4.50;2.58;;;;;;;;;;5113431;28;20027;-51
2022/07/06 08:34:47;;;;;;;2.10;1.98;;;;;;;;;;5114009;28;20034;-52
2022/07/06 08:37:13;;;;;;;5.80;3.65;;;;;;;;;;5113050;27;20173;-50
2022/07/06 08:39:38;;;;;;;6.53;4.90;;;;;;;;;;5113196;28;20106;-54
2022/07/06 08:42:04;;;;;;;11.02;6.18;;;;;;;;;;5111983;28;20463;-57
2022/07/06 08:44:30;;;;;;;8.40;4.75;;;;;;;;;;5111191;28;20383;-55
2022/07/06 08:46:58;;;;;;;10.77;6.30;;;;;;;;;;5113311;28;20012;-60
2022/07/06 08:49:24;;;;;;;5.88;4.05;;;;;;;;;;5113245;28;20482;-60
2022/07/06 08:51:51;;;;;;;2.40;2.15;;;;;;;;;;5111814;28;20016;-59
2022/07/06 08:54:18;;;;;;;1.60;1.50;;;;;;;;;;5108008;28;20027;-57
2022/07/06 08:56:43;;;;;;;3.05;2.08;;;;;;;;;;5113177;28;20599;-60
2022/07/06 08:59:10;;;;;;;2.58;1.40;;;;;;;;;;5113367;28;20019;-60
2022/07/06 09:01:38;;;;;;;1.75;1.65;;;;;;;;;;5113350;28;20039;-53
2022/07/06 09:04:06;;;;;;;7.57;3.88;;;;;;;;;;5113416;28;20111;-59
2022/07/06 09:06:31;;;;;;;1.38;1.27;;;;;;;;;;5113059;28;20752;-60
2022/07/06 09:08:57;;;;;;;2.00;1.80;;;;;;;;;;5113163;28;20027;-60
2022/07/06 09:11:24;;;;;;;1.85;1.75;;;;;;;;;;5111486;28;20118;-58
2022/07/06 09:13:52;;;;;;;12.73;3.58;;;;;;;;;;5112291;28;20031;-60
2022/07/06 09:16:25;;;;;;;11.32;4.03;;;;;;;;;;5113307;28;20378;-49
2022/07/06 09:18:51;;;;;;;3.75;2.40;;;;;;;;;;5112840;28;20028;-60
2022/07/06 09:21:26;;;;;;;2.65;1.70;;;;;;;;;;5111508;28;20047;-52
2022/07/06 09:23:55;;;;;;;10.45;6.03;;;;;;;;;;5111480;28;20052;-56
2022/07/06 09:26:22;;;;;;;1.30;1.20;;;;;;;;;;5112670;28;20038;-52
2022/07/06 09:28:47;;;;;;;3.38;2.33;;;;;;;;;;5111493;28;20019;-44
2022/07/06 09:31:13;;;;;;;1.42;1.33;;;;;;;;;;5094821;28;20549;-43
2022/07/06 09:33:38;;;;;;;1.13;1.13;;;;;;;;;;5112843;28;20051;-56
2022/07/06 09:36:08;;;;;;;5.88;2.58;;;;;;;;;;5113020;28;20032;-59
2022/07/06 09:38:33;;;;;;;1.33;1.30;;;;;;;;;;5113124;28;20032;-59
2022/07/06 09:41:01;;;;;;;1.60;1.50;;;;;;;;;;5112778;28;20046;-59
2022/07/06 09:43:27;;;;;;;1.67;1.50;;;;;;;;;;5112740;28;20020;-59
2022/07/06 09:45:54;;;;;;;1.55;1.45;;;;;;;;;;5112942;28;20034;-51
2022/07/06 09:48:24;;;;;;;1.30;1.27;;;;;;;;;;5112660;28;20475;-44
2022/07/06 09:50:55;;;;;;;1.40;1.40;;;;;;;;;;5112903;28;20428;-59
2022/07/06 09:53:26;;;;;;;11.25;1.65;;;;;;;;;;5113078;28;20028;-57
2022/07/06 09:55:53;;;;;;;5.28;3.25;;;;;;;;;;5113023;28;20024;-59
2022/07/06 09:58:20;;;;;;;4.47;3.00;;;;;;;;;;5112534;28;20575;-56
2022/07/06 10:00:46;;;;;;;2.25;2.05;;;;;;;;;;5112484;28;20027;-57
2022/07/06 10:03:13;;;;;;;2.97;2.15;;;;;;;;;;5112485;28;20034;-61
2022/07/06 10:05:41;;;;;;;3.10;2.03;;;;;;;;;;5112544;28;20027;-53
2022/07/06 10:08:11;;;;;;;12.05;2.75;;;;;;;;;;5112906;28;20227;-52
2022/07/06 10:10:39;;;;;;;3.15;1.52;;;;;;;;;;5112490;28;20122;-57
2022/07/06 10:13:09;;;;;;;4.30;1.58;;;;;;;;;;5112553;28;20273;-42
2022/07/06 10:15:37;;;;;;;4.38;1.65;;;;;;;;;;5112676;28;20035;-45
2022/07/06 10:18:05;;;;;;;2.08;1.63;;;;;;;;;;5112350;28;20024;-41
2022/07/06 10:20:36;;;;;;;3.28;1.90;;;;;;;;;;5112218;28;20483;-40
2022/07/06 10:23:04;;;;;;;6.35;2.08;;;;;;;;;;5112658;28;20039;-43
2022/07/06 10:25:32;;;;;;;2.70;1.80;;;;;;;;;;5115701;28;20020;-44
2022/07/06 10:27:58;;;;;;;1.52;1.38;;;;;;;;;;5116167;28;20030;-41
2022/07/06 10:30:24;;;;;;;2.20;1.73;;;;;;;;;;5116112;27;20023;-44
2022/07/06 10:32:50;;;;;;;3.00;1.95;;;;;;;;;;5116282;28;20475;-54
2022/07/06 10:35:18;;;;;;;3.95;1.70;;;;;;;;;;5115953;28;20016;-44
2022/07/06 10:37:44;;;;;;;1.50;1.40;;;;;;;;;;5116239;28;20088;-42
2022/07/06 10:42:59;;;;;;;4.00;1.65;;;;;;;;;;5116165;28;20115;-44
2022/07/06 10:45:27;;;;;;;1.83;1.63;;;;;;;;;;5115754;28;20490;-42
2022/07/06 10:48:11;;;;;;;2.88;1.60;;;;;;;;;;5115830;28;20027;-41
2022/07/06 10:50:37;;;;;;;2.00;1.88;;;;;;;;;;5114558;28;20028;-40
2022/07/06 10:53:10;;;;;;;1.98;1.77;;;;;;;;;;5115741;28;20527;-40
2022/07/06 10:55:38;;;;;;;2.00;1.60;;;;;;;;;;5115627;28;20440;-43
2022/07/06 10:58:04;;;;;;;2.38;1.30;;;;;;;;;;5116104;28;20172;-40
2022/07/06 11:00:48;;;;;;;1.70;1.60;;;;;;;;;;5115738;28;20069;-40
2022/07/06 11:03:33;;;;;;;2.65;1.73;;;;;;;;;;5115846;28;20031;-42
2022/07/06 11:06:05;;;;;;;3.25;1.70;;;;;;;;;;5115734;28;20027;-43
2022/07/06 11:08:42;;;;;;;3.75;2.30;;;;;;;;;;5115559;28;20020;-40
2022/07/06 11:11:22;;;;;;;12.02;4.95;;;;;;;;;;5115290;28;20501;-55
2022/07/06 11:13:49;;;;;;;6.40;3.78;;;;;;;;;;5115128;28;20027;-41
2022/07/06 11:16:19;;;;;;;2.70;2.42;;;;;;;;;;5115363;28;20020;-40
2022/07/06 11:18:50;;;;;;;4.35;3.25;;;;;;;;;;5115268;28;20064;-49
2022/07/06 11:21:18;;;;;;;5.32;3.30;;;;;;;;;;5114750;28;20044;-45
2022/07/06 11:23:46;;;;;;;1.80;1.70;;;;;;;;;;5115025;28;20533;-52
2022/07/06 11:26:13;;;;;;;10.00;3.50;;;;;;;;;;5115086;28;20383;-44
2022/07/06 11:28:38;;;;;;;12.20;5.00;;;;;;;;;;5114607;28;20031;-41
2022/07/06 11:31:04;;;;;;;10.25;4.72;;;;;;;;;;5114982;28;20031;-40
2022/07/06 11:33:30;;;;;;;5.35;2.60;;;;;;;;;;5114910;28;20104;-45
2022/07/06 11:36:16;;;;;;;6.30;2.65;;;;;;;;;;5114523;28;20034;-43
2022/07/06 11:38:43;;;;;;;3.78;2.10;;;;;;;;;;5114626;28;20032;-50
2022/07/06 11:41:08;;;;;;;4.65;2.65;;;;;;;;;;5114763;27;20023;-40
2022/07/06 11:43:34;;;;;;;8.73;2.67;;;;;;;;;;5114300;28;20119;-40
2022/07/06 11:46:01;;;;;;;5.07;2.78;;;;;;;;;;5114535;28;20051;-40
2022/07/06 11:48:27;;;;;;;4.40;2.00;;;;;;;;;;5114459;28;20281;-40
2022/07/06 11:51:03;;;;;;;6.07;2.47;;;;;;;;;;5114503;28;20265;-40
2022/07/06 11:53:28;;;;;;;4.65;2.40;;;;;;;;;;5114342;28;20028;-41
2022/07/06 11:55:54;;;;;;;2.38;2.17;;;;;;;;;;5114510;28;20024;-43
2022/07/06 11:58:22;;;;;;;4.32;2.80;;;;;;;;;;5114450;28;20488;-42
2022/07/06 12:01:09;;;;;;;4.55;2.33;;;;;;;;;;5114259;27;20061;-41
2022/07/06 12:03:35;;;;;;;4.88;2.60;;;;;;;;;;5113020;28;20031;-41
2022/07/06 12:06:06;;;;;;;2.67;2.22;;;;;;;;;;5114479;28;20064;-41
2022/07/06 12:08:33;;;;;;;3.53;2.33;;;;;;;;;;5113928;28;20027;-45
2022/07/06 12:10:59;;;;;;;5.07;2.20;;;;;;;;;;5114536;28;20049;-41
2022/07/06 12:13:25;;;;;;;2.90;2.28;;;;;;;;;;5113412;28;20115;-52
2022/07/06 12:15:50;;;;;;;7.38;2.20;;;;;;;;;;5113876;28;20106;-40
2022/07/06 12:18:16;;;;;;;5.68;2.15;;;;;;;;;;5114201;28;20023;-40
2022/07/06 12:20:42;;;;;;;2.60;2.40;;;;;;;;;;5113531;28;20031;-40
2022/07/06 12:23:09;;;;;;;9.65;2.80;;;;;;;;;;5112478;28;20031;-40
2022/07/06 12:25:37;;;;;;;10.90;4.10;;;;;;;;;;5113268;28;20104;-40
2022/07/06 12:28:03;;;;;;;7.03;4.90;;;;;;;;;;5113705;28;20059;-42
2022/07/06 12:30:29;;;;;;;14.52;3.55;;;;;;;;;;5113499;28;20534;-41
2022/07/06 12:33:15;;;;;;;10.25;3.33;;;;;;;;;;5113867;28;20027;-40
2022/07/06 12:35:41;;;;;;;8.48;3.05;;;;;;;;;;5113612;28;20066;-41
2022/07/06 12:38:08;;;;;;;10.73;3.38;;;;;;;;;;5113828;28;20039;-52
2022/07/06 12:40:38;;;;;;;4.13;2.72;;;;;;;;;;5113245;28;20055;-40
2022/07/06 12:43:04;;;;;;;3.88;2.83;;;;;;;;;;5113524;28;20027;-41
2022/07/06 12:45:31;;;;;;;5.40;2.22;;;;;;;;;;5113581;28;20020;-53
2022/07/06 12:48:01;;;;;;;6.90;2.67;;;;;;;;;;5112845;27;20019;-40
2022/07/06 12:50:35;;;;;;;3.05;2.22;;;;;;;;;;5112155;28;20492;-40
2022/07/06 12:53:01;;;;;;;4.22;3.00;;;;;;;;;;5113437;28;20031;-40
2022/07/06 12:55:29;;;;;;;3.72;2.40;;;;;;;;;;5113478;28;20027;-41
2022/07/06 12:57:55;;;;;;;5.63;3.20;;;;;;;;;;5113442;28;20024;-40
2022/07/06 13:00:21;;;;;;;4.30;2.45;;;;;;;;;;5113158;28;20038;-41
2022/07/06 13:02:55;;;;;;;3.75;2.20;;;;;;;;;;5113076;28;20023;-40
2022/07/06 13:05:28;;;;;;;5.65;2.50;;;;;;;;;;5113452;28;20024;-41
2022/07/06 13:07:56;;;;;;;6.30;2.70;;;;;;;;;;5113203;28;20111;-41
2022/07/06 13:10:22;;;;;;;11.13;2.65;;;;;;;;;;5112899;28;20494;-46
2022/07/06 13:12:48;;;;;;;4.53;2.50;;;;;;;;;;5113444;28;20058;-40
2022/07/06 13:15:14;;;;;;;8.70;4.28;;;;;;;;;;5113245;28;20031;-42
2022/07/06 13:17:39;;;;;;;2.47;2.28;;;;;;;;;;5112767;28;20031;-43
2022/07/06 13:20:07;;;;;;;7.50;4.75;;;;;;;;;;5112748;28;20111;-40
2022/07/06 13:22:32;;;;;;;13.50;2.40;;;;;;;;;;5112853;28;20031;-42
2022/07/06 13:24:57;;;;;;;8.25;4.03;;;;;;;;;;5113141;28;20028;-40
2022/07/06 13:27:23;;;;;;;6.32;2.40;;;;;;;;;;5112875;28;20022;-40
2022/07/06 13:29:48;;;;;;;6.80;2.67;;;;;;;;;;5112912;28;20522;-41
2022/07/06 13:32:14;;;;;;;5.93;2.67;;;;;;;;;;5112672;28;20024;-40
2022/07/06 13:34:39;;;;;;;7.13;2.90;;;;;;;;;;5112741;28;20494;-40
2022/07/06 13:37:05;;;;;;;5.40;3.67;;;;;;;;;;5112704;28;20031;-40
2022/07/06 13:39:31;;;;;;;12.05;3.47;;;;;;;;;;5112645;28;20032;-40
2022/07/06 13:41:57;;;;;;;6.07;2.22;;;;;;;;;;5112807;28;20027;-40
2022/07/06 13:44:22;;;;;;;4.82;3.20;;;;;;;;;;5112601;28;20490;-40
2022/07/06 13:46:49;;;;;;;7.07;2.45;;;;;;;;;;5112617;28;20020;-40
2022/07/06 13:49:14;;;;;;;11.05;2.60;;;;;;;;;;5113024;28;20027;-40
2022/07/06 13:51:40;;;;;;;8.93;3.45;;;;;;;;;;5112591;28;20030;-48
2022/07/06 13:54:06;;;;;;;9.27;2.50;;;;;;;;;;5112591;28;20073;-40
2022/07/06 13:56:32;;;;;;;8.48;2.75;;;;;;;;;;5112628;28;20019;-49
2022/07/06 13:58:57;;;;;;;11.23;3.30;;;;;;;;;;5115245;28;20059;-51
2022/07/06 14:01:23;;;;;;;16.58;2.40;;;;;;;;;;5116588;28;20055;-44
2022/07/06 14:03:49;;;;;;;24.90;3.08;;;;;;;;;;5116710;28;20028;-44
2022/07/06 14:06:15;;;;;;;7.68;2.20;;;;;;;;;;5116749;28;20416;-40
2022/07/06 14:08:42;;;;;;;7.47;2.00;;;;;;;;;;5116459;28;20068;-40
2022/07/06 14:11:08;;;;;;;14.80;2.80;;;;;;;;;;5116794;27;20038;-47
2022/07/06 14:13:35;;;;;;;12.55;2.70;;;;;;;;;;5116637;28;20023;-46
2022/07/06 14:16:01;;;;;;;8.13;2.03;;;;;;;;;;5116685;28;20024;-43
2022/07/06 14:18:27;;;;;;;6.95;1.92;;;;;;;;;;5116605;28;20068;-60
2022/07/06 14:20:53;;;;;;;8.48;2.28;;;;;;;;;;5115977;28;20453;-61
2022/07/06 14:23:19;;;;;;;20.45;2.55;;;;;;;;;;5116048;28;20027;-50
2022/07/06 14:25:45;;;;;;;10.27;2.45;;;;;;;;;;5116454;28;20011;-58
2022/07/06 14:28:16;;;;;;;3.92;2.55;;;;;;;;;;5116375;28;20419;-60
2022/07/06 14:30:43;;;;;;;3.35;1.88;;;;;;;;;;5116137;28;20107;-51
2022/07/06 14:33:09;;;;;;;6.20;2.13;;;;;;;;;;5116415;28;20039;-56
2022/07/06 14:35:39;;;;;;;5.70;2.30;;;;;;;;;;5116218;28;20637;-50
2022/07/06 14:38:06;;;;;;;8.48;2.40;;;;;;;;;;5115943;28;20474;-62
2022/07/06 14:40:31;;;;;;;7.57;2.10;;;;;;;;;;5115759;28;20389;-62
2022/07/06 14:42:58;;;;;;;6.07;2.08;;;;;;;;;;5115818;27;20024;-61